createdAt,value
2023-01-11T00:00:24.008Z,5.16
2023-01-11T00:01:27.281Z,5.17
2023-01-11T00:02:29.912Z,5.12
2023-01-11T00:03:35.913Z,5.14
2023-01-11T00:04:38.588Z,5.11
2023-01-11T00:05:43.223Z,5.20
2023-01-11T00:06:46.754Z,5.17
2023-01-11T00:07:49.562Z,5.16
2023-01-11T00:08:52.301Z,5.17
2023-01-11T00:09:55.349Z,5.20
2023-01-11T00:10:57.963Z,5.13
2023-01-11T00:12:00.940Z,5.12
2023-01-11T00:13:04.257Z,5.10
2023-01-11T00:14:06.874Z,5.06
2023-01-11T00:15:10.252Z,5.14
2023-01-11T00:16:13.712Z,5.13
2023-01-11T00:17:16.708Z,5.11
2023-01-11T00:18:19.740Z,5.13
2023-01-11T00:19:22.361Z,5.14
2023-01-11T00:20:28.649Z,5.16
2023-01-11T00:21:31.670Z,5.15
2023-01-11T00:22:34.678Z,5.16
2023-01-11T00:23:38.540Z,5.20
2023-01-11T00:24:41.130Z,5.13
2023-01-11T00:25:43.933Z,5.20
2023-01-11T00:26:46.705Z,5.21
2023-01-11T00:27:49.758Z,5.24
2023-01-11T00:28:52.876Z,5.21
2023-01-11T00:29:55.546Z,5.22
2023-01-11T00:30:58.399Z,5.19
2023-01-11T00:32:01.078Z,5.19
2023-01-11T00:33:04.144Z,5.22
2023-01-11T00:34:06.737Z,5.20
2023-01-11T00:35:09.981Z,5.20
2023-01-11T00:36:13.077Z,5.25
2023-01-11T00:37:15.953Z,5.31
2023-01-11T00:38:38.681Z,5.31
2023-01-11T00:39:41.340Z,5.34
2023-01-11T00:40:43.977Z,5.39
2023-01-11T00:42:05.103Z,5.37
2023-01-11T00:43:26.929Z,5.35
2023-01-11T00:44:48.499Z,5.31
2023-01-11T00:46:09.782Z,5.29
2023-01-11T00:47:35.716Z,5.27
2023-01-11T00:48:38.470Z,5.25
2023-01-11T00:49:41.757Z,5.26
2023-01-11T00:50:44.357Z,5.28
2023-01-11T00:51:47.028Z,5.28
2023-01-11T00:52:49.662Z,5.29
2023-01-11T00:53:52.473Z,5.29
2023-01-11T00:54:55.465Z,5.26
2023-01-11T00:55:58.119Z,5.31
2023-01-11T00:57:00.809Z,5.31
2023-01-11T00:58:03.880Z,5.33
2023-01-11T00:59:06.569Z,5.33
2023-01-11T01:00:10.286Z,5.34
2023-01-11T01:01:13.196Z,5.42
2023-01-11T01:02:16.029Z,5.42
2023-01-11T01:03:18.699Z,5.45
2023-01-11T01:04:21.466Z,5.45
2023-01-11T01:05:24.792Z,5.47
2023-01-11T01:06:28.461Z,5.44
2023-01-11T01:07:31.807Z,5.44
2023-01-11T01:08:35.604Z,5.47
2023-01-11T01:09:38.507Z,5.49
2023-01-11T01:10:41.359Z,5.55
2023-01-11T01:11:43.991Z,5.55
2023-01-11T01:13:05.696Z,5.51
2023-01-11T01:14:30.993Z,5.56
2023-01-11T01:15:34.282Z,5.58
2023-01-11T01:16:37.356Z,5.54
2023-01-11T01:17:40.534Z,5.57
2023-01-11T01:18:43.578Z,5.55
2023-01-11T01:19:46.415Z,5.57
2023-01-11T01:20:50.966Z,5.61
2023-01-11T01:21:56.270Z,5.60
2023-01-11T01:22:58.950Z,5.60
2023-01-11T01:24:01.639Z,5.58
2023-01-11T01:25:04.626Z,5.60
2023-01-11T01:26:07.395Z,5.66
2023-01-11T01:27:15.749Z,5.58
2023-01-11T01:28:21.976Z,5.60
2023-01-11T01:29:25.867Z,5.61
2023-01-11T01:30:28.753Z,5.55
2023-01-11T01:31:31.493Z,5.54
2023-01-11T01:32:34.434Z,5.55
2023-01-11T01:33:37.061Z,5.57
2023-01-11T01:34:39.837Z,5.62
2023-01-11T01:35:42.513Z,5.60
2023-01-11T01:36:45.226Z,5.57
2023-01-11T01:37:48.411Z,5.59
2023-01-11T01:38:51.112Z,5.61
2023-01-11T01:39:53.800Z,5.64
2023-01-11T01:40:57.025Z,5.61
2023-01-11T01:41:59.714Z,5.62
2023-01-11T01:43:02.728Z,5.67
2023-01-11T01:44:43.750Z,5.68
2023-01-11T01:45:49.924Z,5.64
2023-01-11T01:46:52.656Z,5.67
2023-01-11T01:47:59.571Z,5.65
2023-01-11T01:49:14.115Z,5.65
2023-01-11T01:50:27.987Z,5.66
2023-01-11T01:51:52.213Z,5.64
2023-01-11T01:53:02.488Z,5.64
2023-01-11T01:54:10.529Z,5.66
2023-01-11T01:55:19.285Z,5.69
2023-01-11T01:56:30.352Z,5.72
2023-01-11T01:57:37.549Z,5.70
2023-01-11T01:58:47.011Z,5.69
2023-01-11T01:59:52.058Z,5.66
2023-01-11T02:00:55.132Z,5.65
2023-01-11T02:01:58.923Z,5.69
2023-01-11T02:03:02.580Z,5.68
2023-01-11T02:04:11.295Z,5.69
2023-01-11T02:05:16.107Z,5.70
2023-01-11T02:06:22.545Z,5.70
2023-01-11T02:07:38.465Z,5.69
2023-01-11T02:08:46.308Z,5.69
2023-01-11T02:09:58.729Z,5.65
2023-01-11T02:11:03.520Z,5.67
2023-01-11T02:12:07.955Z,5.64
2023-01-11T02:13:14.403Z,5.65
2023-01-11T02:14:20.243Z,5.64
2023-01-11T02:15:24.125Z,5.68
2023-01-11T02:16:26.974Z,5.67
2023-01-11T02:17:29.738Z,5.65
2023-01-11T02:18:35.255Z,5.64
2023-01-11T02:19:53.491Z,5.65
2023-01-11T02:21:21.007Z,5.69
2023-01-11T02:23:08.095Z,5.65
2023-01-11T02:25:00.202Z,5.64
2023-01-11T02:26:34.264Z,5.66
2023-01-11T02:27:58.641Z,5.64
2023-01-11T02:29:07.087Z,5.68
2023-01-11T02:30:38.900Z,5.72
2023-01-11T02:32:22.419Z,5.72
2023-01-11T02:33:33.702Z,5.79
2023-01-11T02:35:08.773Z,5.73
2023-01-11T02:36:34.456Z,5.67
2023-01-11T02:37:50.215Z,5.65
2023-01-11T03:01:52.749Z,5.83
2023-01-11T03:03:16.319Z,5.81
2023-01-11T03:04:36.720Z,5.85
2023-01-11T03:05:50.569Z,5.81
2023-01-11T03:08:36.164Z,5.78
2023-01-11T03:09:57.292Z,5.77
2023-01-11T03:11:11.724Z,5.80
2023-01-11T03:12:52.237Z,5.80
2023-01-11T03:14:05.871Z,5.76
2023-01-11T03:15:45.893Z,5.82
2023-01-11T03:16:54.491Z,5.81
2023-01-11T03:18:20.533Z,5.81
2023-01-11T03:19:39.792Z,5.80
2023-01-11T03:20:50.387Z,5.81
2023-01-11T03:22:01.637Z,5.85
2023-01-11T03:23:17.498Z,5.82
2023-01-11T03:24:38.134Z,5.81
2023-01-11T03:25:50.391Z,5.83
2023-01-11T03:26:58.668Z,5.82
2023-01-11T03:28:21.535Z,5.83
2023-01-11T03:29:37.572Z,5.86
2023-01-11T03:30:59.767Z,5.85
2023-01-11T03:32:44.761Z,5.86
2023-01-11T03:34:27.128Z,5.86
2023-01-11T03:35:47.011Z,5.85
2023-01-11T03:36:56.769Z,5.81
2023-01-11T03:38:20.476Z,5.80
2023-01-11T03:39:34.481Z,5.81
2023-01-11T03:41:16.792Z,5.85
2023-01-11T03:42:22.412Z,5.91
2023-01-11T03:43:28.153Z,5.80
2023-01-11T03:44:39.172Z,5.79
2023-01-11T03:45:50.542Z,5.84
2023-01-11T03:47:02.838Z,5.81
2023-01-11T03:48:10.473Z,5.83
2023-01-11T03:49:20.148Z,5.84
2023-01-11T03:50:23.749Z,5.84
2023-01-11T03:51:30.195Z,5.82
2023-01-11T03:52:38.414Z,5.92
2023-01-11T03:53:45.771Z,5.84
2023-01-11T03:54:49.688Z,5.89
2023-01-11T03:55:58.137Z,5.92
2023-01-11T03:57:25.081Z,5.91
2023-01-11T03:58:28.431Z,5.92
2023-01-11T03:59:31.892Z,5.85
2023-01-11T04:00:36.564Z,5.83
2023-01-11T04:01:39.848Z,5.81
2023-01-11T04:02:42.555Z,5.87
2023-01-11T04:03:45.144Z,5.85
2023-01-11T04:04:48.325Z,5.84
2023-01-11T04:05:55.013Z,5.84
2023-01-11T04:06:58.113Z,5.86
2023-01-11T04:09:27.930Z,6.39
2023-01-11T04:10:31.341Z,6.39
2023-01-11T04:11:34.023Z,5.86
2023-01-11T04:12:36.695Z,5.84
2023-01-11T04:13:43.886Z,5.89
2023-01-11T04:14:46.542Z,5.87
2023-01-11T04:15:49.611Z,5.85
2023-01-11T04:16:52.264Z,5.86
2023-01-11T04:17:55.295Z,5.83
2023-01-11T04:18:58.372Z,5.82
2023-01-11T04:20:01.041Z,5.87
2023-01-11T04:21:04.321Z,5.89
2023-01-11T04:22:06.960Z,5.89
2023-01-11T04:23:10.470Z,5.87
2023-01-11T04:24:13.742Z,5.79
2023-01-11T04:25:16.527Z,5.87
2023-01-11T04:26:19.586Z,5.86
2023-01-11T04:27:22.397Z,5.87
2023-01-11T04:28:25.433Z,5.58
2023-01-11T04:29:28.184Z,5.90
2023-01-11T04:30:31.123Z,5.91
2023-01-11T04:31:34.169Z,5.89
2023-01-11T04:32:36.964Z,5.87
2023-01-11T04:33:39.656Z,5.90
2023-01-11T04:34:42.825Z,5.91
2023-01-11T04:35:45.716Z,5.95
2023-01-11T04:36:49.003Z,5.91
2023-01-11T04:37:56.326Z,5.86
2023-01-11T04:39:00.377Z,5.88
2023-01-11T04:40:03.336Z,5.92
2023-01-11T04:41:24.805Z,5.94
2023-01-11T04:42:27.884Z,5.94
2023-01-11T04:43:30.554Z,5.93
2023-01-11T04:44:33.253Z,5.93
2023-01-11T04:45:35.925Z,5.92
2023-01-11T04:46:38.664Z,5.90
2023-01-11T04:47:41.862Z,5.89
2023-01-11T04:48:45.033Z,5.88
2023-01-11T04:49:48.315Z,5.88
2023-01-11T04:50:51.041Z,5.87
2023-01-11T04:51:53.867Z,5.85
2023-01-11T04:53:00.099Z,5.89
2023-01-11T04:54:02.802Z,5.91
2023-01-11T04:55:05.799Z,5.90
2023-01-11T04:56:09.318Z,5.91
2023-01-11T04:57:17.482Z,5.89
2023-01-11T04:58:20.617Z,5.90
2023-01-11T04:59:23.344Z,5.93
2023-01-11T05:00:26.283Z,5.88
2023-01-11T05:01:29.120Z,5.86
2023-01-11T05:02:31.765Z,5.85
2023-01-11T05:03:34.691Z,5.83
2023-01-11T05:04:37.388Z,5.81
2023-01-11T05:05:40.017Z,5.85
2023-01-11T05:06:43.288Z,5.85
2023-01-11T05:07:48.527Z,5.78
2023-01-11T05:08:51.891Z,5.83
2023-01-11T05:09:54.768Z,5.82
2023-01-11T05:11:03.114Z,5.85
2023-01-11T05:12:05.936Z,5.82
2023-01-11T05:13:08.653Z,5.81
2023-01-11T05:14:12.010Z,5.80
2023-01-11T05:15:14.721Z,5.80
2023-01-11T05:16:18.640Z,5.77
2023-01-11T05:17:21.671Z,5.73
2023-01-11T05:18:26.117Z,5.71
2023-01-11T05:19:29.236Z,5.69
2023-01-11T05:20:31.984Z,5.71
2023-01-11T05:21:41.609Z,5.74
2023-01-11T05:22:44.247Z,5.73
2023-01-11T05:23:47.675Z,5.73
2023-01-11T05:24:50.684Z,5.73
2023-01-11T05:25:53.371Z,5.75
2023-01-11T05:26:56.113Z,5.72
2023-01-11T05:27:58.893Z,5.70
2023-01-11T05:29:04.535Z,5.68
2023-01-11T05:30:08.254Z,5.65
2023-01-11T05:31:11.252Z,5.62
2023-01-11T05:32:14.016Z,5.59
2023-01-11T05:33:16.701Z,5.64
2023-01-11T05:34:19.550Z,5.64
2023-01-11T05:35:22.645Z,5.62
2023-01-11T05:36:27.229Z,5.60
2023-01-11T05:37:30.062Z,5.61
2023-01-11T05:38:33.700Z,5.61
2023-01-11T05:39:36.593Z,5.56
2023-01-11T05:40:39.961Z,5.63
2023-01-11T05:41:43.176Z,5.61
2023-01-11T05:42:47.171Z,5.66
2023-01-11T05:44:09.549Z,5.67
2023-01-11T05:45:32.093Z,5.64
2023-01-11T05:46:36.651Z,5.68
2023-01-11T05:47:39.462Z,5.66
2023-01-11T05:48:42.244Z,5.67
2023-01-11T05:49:45.377Z,5.65
2023-01-11T05:50:52.419Z,5.65
2023-01-11T05:51:55.461Z,5.60
2023-01-11T05:52:58.135Z,5.66
2023-01-11T05:54:02.713Z,5.63
2023-01-11T05:55:05.981Z,5.62
2023-01-11T05:56:08.764Z,5.59
2023-01-11T05:57:12.020Z,5.64
2023-01-11T05:58:14.653Z,5.64
2023-01-11T05:59:17.349Z,5.69
2023-01-11T06:00:20.432Z,5.65
2023-01-11T06:01:24.516Z,5.65
2023-01-11T06:02:27.362Z,5.66
2023-01-11T06:03:30.373Z,5.64
2023-01-11T06:04:33.593Z,5.64
2023-01-11T06:05:36.306Z,5.68
2023-01-11T06:06:39.852Z,5.68
2023-01-11T06:07:42.632Z,5.65
2023-01-11T06:08:45.530Z,5.68
2023-01-11T06:09:48.366Z,5.66
2023-01-11T06:10:52.845Z,5.67
2023-01-11T06:11:56.216Z,5.68
2023-01-11T06:13:23.812Z,5.69
2023-01-11T06:14:26.728Z,5.68
2023-01-11T06:15:29.528Z,5.70
2023-01-11T06:16:32.389Z,5.69
2023-01-11T06:17:35.729Z,5.69
2023-01-11T06:18:41.027Z,5.67
2023-01-11T06:19:43.761Z,5.67
2023-01-11T06:20:50.016Z,5.65
2023-01-11T06:21:52.855Z,5.64
2023-01-11T06:22:55.811Z,5.66
2023-01-11T06:23:58.531Z,5.68
2023-01-11T06:25:01.614Z,5.73
2023-01-11T06:26:09.049Z,5.71
2023-01-11T06:27:12.070Z,5.73
2023-01-11T06:28:15.802Z,5.73
2023-01-11T06:29:18.795Z,5.72
2023-01-11T06:30:21.699Z,5.71
2023-01-11T06:31:24.502Z,5.72
2023-01-11T06:32:29.519Z,5.70
2023-01-11T06:33:32.695Z,5.74
2023-01-11T06:34:35.420Z,5.71
2023-01-11T06:35:40.965Z,5.71
2023-01-11T06:36:43.678Z,5.65
2023-01-11T06:37:46.491Z,5.70
2023-01-11T06:38:49.539Z,5.69
2023-01-11T06:39:52.304Z,5.71
2023-01-11T06:41:00.547Z,5.67
2023-01-11T06:42:03.239Z,5.69
2023-01-11T06:43:06.878Z,5.70
2023-01-11T06:44:09.831Z,5.69
2023-01-11T06:45:12.572Z,5.70
2023-01-11T06:46:16.549Z,5.69
2023-01-11T06:47:19.312Z,5.68
2023-01-11T06:48:23.614Z,5.71
2023-01-11T06:49:26.779Z,5.68
2023-01-11T06:50:29.692Z,5.69
2023-01-11T06:51:32.336Z,5.68
2023-01-11T06:52:35.065Z,5.68
2023-01-11T06:53:38.533Z,5.72
2023-01-11T06:54:41.937Z,5.73
2023-01-11T06:55:45.066Z,5.71
2023-01-11T06:56:47.778Z,5.74
2023-01-11T06:57:50.594Z,5.75
2023-01-11T06:58:53.396Z,5.73
2023-01-11T06:59:56.916Z,5.73
2023-01-11T07:00:59.749Z,5.73
2023-01-11T07:02:02.691Z,5.75
2023-01-11T07:03:06.865Z,5.76
2023-01-11T07:04:10.012Z,5.76
2023-01-11T07:05:13.985Z,5.75
2023-01-11T07:06:16.858Z,5.75
2023-01-11T07:07:20.135Z,5.72
2023-01-11T07:08:24.533Z,5.76
2023-01-11T07:09:27.271Z,5.75
2023-01-11T07:10:30.803Z,5.75
2023-01-11T07:11:34.957Z,5.77
2023-01-11T07:12:38.004Z,5.74
2023-01-11T07:13:40.671Z,5.76
2023-01-11T07:14:43.437Z,5.78
2023-01-11T07:15:50.199Z,5.78
2023-01-11T07:16:52.934Z,5.77
2023-01-11T07:17:57.180Z,5.78
2023-01-11T07:18:59.919Z,5.77
2023-01-11T07:20:03.419Z,5.77
2023-01-11T07:21:06.730Z,5.78
2023-01-11T07:22:09.383Z,5.78
2023-01-11T07:23:12.099Z,5.79
2023-01-11T07:24:14.845Z,5.75
2023-01-11T07:25:18.306Z,5.78
2023-01-11T07:26:21.819Z,5.78
2023-01-11T07:27:24.584Z,5.82
2023-01-11T07:28:28.599Z,5.81
2023-01-11T07:29:31.408Z,5.83
2023-01-11T07:30:51.771Z,5.85
2023-01-11T07:31:59.643Z,5.84
2023-01-11T07:33:04.300Z,5.82
2023-01-11T07:34:07.101Z,5.81
2023-01-11T07:35:09.989Z,5.80
2023-01-11T07:36:12.740Z,5.82
2023-01-11T07:37:28.252Z,5.80
2023-01-11T07:38:32.821Z,5.80
2023-01-11T07:39:43.202Z,5.80
2023-01-11T07:40:47.346Z,5.79
2023-01-11T07:42:08.612Z,5.77
2023-01-11T07:43:19.879Z,5.77
2023-01-11T07:44:24.302Z,5.78
2023-01-11T07:45:37.360Z,5.78
2023-01-11T07:46:47.392Z,5.78
2023-01-11T07:47:52.209Z,5.79
2023-01-11T07:48:55.304Z,5.81
2023-01-11T07:49:57.972Z,5.82
2023-01-11T07:51:00.700Z,5.83
2023-01-11T07:52:03.410Z,5.84
2023-01-11T07:53:07.972Z,5.84
2023-01-11T07:54:10.972Z,5.83
2023-01-11T07:55:13.770Z,5.84
2023-01-11T07:56:17.112Z,5.82
2023-01-11T07:57:19.844Z,5.85
2023-01-11T07:58:25.061Z,5.84
2023-01-11T07:59:29.031Z,5.79
2023-01-11T08:00:32.621Z,5.92
2023-01-11T08:01:36.143Z,5.92
2023-01-11T08:02:39.071Z,5.93
2023-01-11T08:03:41.833Z,5.94
2023-01-11T08:04:44.687Z,5.92
2023-01-11T08:05:51.702Z,5.91
2023-01-11T08:06:54.653Z,5.93
2023-01-11T08:07:57.452Z,5.93
2023-01-11T08:09:00.446Z,5.92
2023-01-11T08:10:03.997Z,5.91
2023-01-11T08:11:25.775Z,5.92
2023-01-11T08:12:48.936Z,5.93
2023-01-11T08:14:11.519Z,5.94
2023-01-11T08:15:14.304Z,5.93
2023-01-11T08:16:16.980Z,5.96
2023-01-11T08:17:19.731Z,5.97
2023-01-11T08:18:23.352Z,5.97
2023-01-11T08:19:26.118Z,5.99
2023-01-11T08:20:29.128Z,5.99
2023-01-11T08:21:32.265Z,5.99
2023-01-11T08:22:34.909Z,5.99
2023-01-11T08:23:37.892Z,6.03
2023-01-11T08:24:40.639Z,6.02
2023-01-11T08:25:43.403Z,6.01
2023-01-11T08:26:46.188Z,6.04
2023-01-11T08:27:48.963Z,6.04
2023-01-11T08:28:52.685Z,6.04
2023-01-11T08:29:55.311Z,6.06
2023-01-11T08:30:58.061Z,6.08
2023-01-11T08:32:00.965Z,6.10
2023-01-11T08:33:05.578Z,6.11
2023-01-11T08:34:08.576Z,6.12
2023-01-11T08:35:12.549Z,6.14
2023-01-11T08:36:15.239Z,6.13
2023-01-11T08:37:18.006Z,6.11
2023-01-11T08:38:20.671Z,6.13
2023-01-11T08:39:24.587Z,6.16
2023-01-11T08:40:27.674Z,6.15
2023-01-11T08:41:30.417Z,6.16
2023-01-11T08:42:34.175Z,6.17
2023-01-11T08:43:37.923Z,6.20
2023-01-11T08:44:40.885Z,6.22
2023-01-11T08:45:47.484Z,6.21
2023-01-11T08:46:52.475Z,6.25
2023-01-11T08:47:55.654Z,6.27
2023-01-11T08:48:58.445Z,6.24
2023-01-11T08:50:01.488Z,6.30
2023-01-11T08:51:04.557Z,6.31
2023-01-11T08:52:07.276Z,6.32
2023-01-11T08:53:12.161Z,6.34
2023-01-11T08:54:15.344Z,6.36
2023-01-11T08:55:19.252Z,6.36
2023-01-11T08:56:22.082Z,6.38
2023-01-11T08:57:24.900Z,6.39
2023-01-11T08:58:27.728Z,6.42
2023-01-11T08:59:31.124Z,6.42
2023-01-11T09:00:34.076Z,6.45
2023-01-11T09:01:36.778Z,6.47
2023-01-11T09:02:39.740Z,6.47
2023-01-11T09:03:42.439Z,6.50
2023-01-11T09:04:45.228Z,6.52
2023-01-11T09:05:48.255Z,6.53
2023-01-11T09:06:51.843Z,6.53
2023-01-11T09:07:55.934Z,6.56
2023-01-11T09:08:58.752Z,6.56
2023-01-11T09:10:01.583Z,6.59
2023-01-11T09:11:24.708Z,6.63
2023-01-11T09:12:27.764Z,6.65
2023-01-11T09:13:30.659Z,6.68
2023-01-11T09:14:33.456Z,6.70
2023-01-11T09:15:36.239Z,6.74
2023-01-11T09:16:39.365Z,6.73
2023-01-11T09:17:42.036Z,6.74
2023-01-11T09:18:44.716Z,6.80
2023-01-11T09:19:47.692Z,6.81
2023-01-11T09:20:51.664Z,6.81
2023-01-11T09:21:57.672Z,6.81
2023-01-11T09:23:01.018Z,6.84
2023-01-11T09:24:04.663Z,6.86
2023-01-11T09:25:08.194Z,6.93
2023-01-11T09:26:12.669Z,6.94
2023-01-11T09:27:16.545Z,6.97
2023-01-11T09:28:19.623Z,7.03
2023-01-11T09:29:22.708Z,7.12
2023-01-11T09:30:25.583Z,7.23
2023-01-11T09:31:28.447Z,7.27
2023-01-11T09:32:31.585Z,7.34
2023-01-11T09:33:34.838Z,7.44
2023-01-11T09:34:37.600Z,7.53
2023-01-11T09:35:42.686Z,7.70
2023-01-11T09:36:47.504Z,7.78
2023-01-11T09:37:53.902Z,7.79
2023-01-11T09:38:58.006Z,7.84
2023-01-11T09:40:01.689Z,7.95
2023-01-11T09:41:06.242Z,8.05
2023-01-11T09:42:37.800Z,8.10
2023-01-11T09:44:03.933Z,8.10
2023-01-11T09:45:26.021Z,8.15
2023-01-11T09:46:30.098Z,8.21
2023-01-11T09:48:17.842Z,8.09
2023-01-11T09:49:40.713Z,8.01
2023-01-11T09:50:47.900Z,8.16
2023-01-11T09:51:52.302Z,8.58
2023-01-11T09:52:58.720Z,8.77
2023-01-11T09:54:06.064Z,9.20
2023-01-11T09:55:20.203Z,9.56
2023-01-11T09:56:31.485Z,9.75
2023-01-11T09:58:03.141Z,10.18
2023-01-11T09:59:27.146Z,10.59
2023-01-11T10:00:41.848Z,10.91
2023-01-11T10:02:05.394Z,11.22
2023-01-11T10:03:20.926Z,11.49
2023-01-11T10:04:37.500Z,10.86
2023-01-11T10:05:59.591Z,10.58
2023-01-11T10:07:49.801Z,10.98
2023-01-11T10:18:30.451Z,10.98
2023-01-11T10:18:38.447Z,11.27
2023-01-11T10:19:04.298Z,11.05
2023-01-11T10:20:13.847Z,11.59
2023-01-11T10:21:37.560Z,11.95
2023-01-11T10:22:47.083Z,11.83
2023-01-11T10:24:02.816Z,11.65
2023-01-11T10:25:18.719Z,11.48
2023-01-11T10:26:37.366Z,11.70
2023-01-11T10:27:49.537Z,11.96
2023-01-11T10:29:07.538Z,11.78
2023-01-11T10:30:34.550Z,11.61
2023-01-11T10:32:08.761Z,11.99
2023-01-11T10:33:37.952Z,12.32
2023-01-11T10:34:56.497Z,12.56
2023-01-11T10:36:15.026Z,12.61
2023-01-11T10:37:24.703Z,12.56
2023-01-11T10:38:46.566Z,12.39
2023-01-11T10:40:30.568Z,11.93
2023-01-11T10:41:51.440Z,12.38
2023-01-11T10:43:03.881Z,12.42
2023-01-11T10:44:09.938Z,12.03
2023-01-11T10:45:17.981Z,11.89
2023-01-11T10:46:25.795Z,12.03
2023-01-11T10:48:01.656Z,12.01
2023-01-11T10:49:37.607Z,12.35
2023-01-11T10:50:58.738Z,12.59
2023-01-11T10:52:15.104Z,12.45
2023-01-11T10:53:25.607Z,12.30
2023-01-11T10:54:35.106Z,12.67
2023-01-11T10:55:47.628Z,12.97
2023-01-11T10:57:04.669Z,12.83
2023-01-11T10:58:31.323Z,12.46
2023-01-11T11:00:09.196Z,12.40
2023-01-11T11:01:24.553Z,12.32
2023-01-11T11:03:11.803Z,12.41
2023-01-11T11:04:26.527Z,12.50
2023-01-11T11:05:52.230Z,12.69
2023-01-11T11:07:14.335Z,12.41
2023-01-11T11:08:40.310Z,12.71
2023-01-11T11:10:21.870Z,12.84
2023-01-11T11:13:22.368Z,12.83
2023-01-11T11:17:53.341Z,13.00
2023-01-11T11:18:58.881Z,13.23
2023-01-11T11:20:17.130Z,13.01
2023-01-11T11:21:32.278Z,13.07
2023-01-11T11:22:35.560Z,13.26
2023-01-11T11:23:39.621Z,13.59
2023-01-11T11:24:50.086Z,13.37
2023-01-11T11:25:57.798Z,12.78
2023-01-11T11:27:19.557Z,12.25
2023-01-11T11:28:22.841Z,12.97
2023-01-11T11:29:31.498Z,12.94
2023-01-11T11:30:38.482Z,13.23
2023-01-11T11:31:44.539Z,12.82
2023-01-11T11:32:57.757Z,12.34
2023-01-11T11:34:13.183Z,12.52
2023-01-11T11:35:41.633Z,12.75
2023-01-11T11:36:47.253Z,12.65
2023-01-11T11:37:54.657Z,12.43
2023-01-11T11:39:19.893Z,12.46
2023-01-11T11:40:33.862Z,12.65
2023-01-11T11:41:52.665Z,12.94
2023-01-11T11:43:21.433Z,12.73
2023-01-11T11:44:28.635Z,12.97
2023-01-11T11:45:32.431Z,13.37
2023-01-11T11:46:35.255Z,13.29
2023-01-11T11:47:38.604Z,13.51
2023-01-11T11:48:44.552Z,13.39
2023-01-11T11:49:47.665Z,13.71
2023-01-11T11:50:53.153Z,14.08
2023-01-11T11:51:56.929Z,13.87
2023-01-11T11:53:04.018Z,13.86
2023-01-11T11:54:06.866Z,14.14
2023-01-11T11:55:14.201Z,14.15
2023-01-11T11:56:27.173Z,13.80
2023-01-11T11:57:37.593Z,13.89
2023-01-11T11:58:42.354Z,13.69
2023-01-11T11:59:50.733Z,13.75
2023-01-11T12:00:53.914Z,14.20
2023-01-11T12:02:02.444Z,13.79
2023-01-11T12:03:33.173Z,13.40
2023-01-11T12:04:49.866Z,13.58
2023-01-11T12:05:56.105Z,13.69
2023-01-11T12:07:16.561Z,13.85
2023-01-11T12:08:20.024Z,14.03
2023-01-11T12:09:31.899Z,14.22
2023-01-11T12:10:34.812Z,13.72
2023-01-11T12:11:42.235Z,13.95
2023-01-11T12:13:04.092Z,13.89
2023-01-11T12:14:06.753Z,14.12
2023-01-11T12:15:20.248Z,14.15
2023-01-11T12:16:23.304Z,14.48
2023-01-11T12:17:26.225Z,14.42
2023-01-11T12:18:37.595Z,14.32
2023-01-11T12:19:43.542Z,14.41
2023-01-11T12:20:47.383Z,14.44
2023-01-11T12:21:51.994Z,13.83
2023-01-11T12:23:17.180Z,13.67
2023-01-11T12:24:21.070Z,13.32
2023-01-11T12:25:26.671Z,13.40
2023-01-11T12:26:58.813Z,13.64
2023-01-11T12:28:01.790Z,13.39
2023-01-11T12:29:37.080Z,13.16
2023-01-11T12:31:04.335Z,13.46
2023-01-11T12:32:31.629Z,13.17
2023-01-11T12:33:52.184Z,13.23
2023-01-11T12:35:00.769Z,13.82
2023-01-11T12:36:19.065Z,14.09
2023-01-11T12:38:08.544Z,13.94
2023-01-11T12:39:45.724Z,14.43
2023-01-11T12:41:01.643Z,14.28
2023-01-11T12:42:27.719Z,14.28
2023-01-11T12:43:54.527Z,13.62
2023-01-11T12:45:20.238Z,13.60
2023-01-11T12:46:40.878Z,13.73
2023-01-11T12:48:16.048Z,13.83
2023-01-11T12:50:03.728Z,14.04
2023-01-11T12:51:24.426Z,14.15
2023-01-11T12:52:50.608Z,14.00
2023-01-11T12:54:12.783Z,13.54
2023-01-11T12:55:15.481Z,13.47
2023-01-11T12:56:40.988Z,13.52
2023-01-11T12:58:02.002Z,13.72
2023-01-11T12:59:29.671Z,13.78
2023-01-11T13:00:43.584Z,13.41
2023-01-11T13:02:02.127Z,13.46
2023-01-11T13:03:17.273Z,13.63
2023-01-11T13:04:26.378Z,14.02
2023-01-11T13:06:00.586Z,13.99
2023-01-11T13:07:15.676Z,13.29
2023-01-11T13:08:37.055Z,13.66
2023-01-11T13:09:56.509Z,14.01
2023-01-11T13:11:37.330Z,13.94
2023-01-11T13:13:07.847Z,13.98
2023-01-11T13:14:29.589Z,13.26
2023-01-11T13:15:59.114Z,13.66
2023-01-11T13:17:28.275Z,13.73
2023-01-11T13:18:48.812Z,13.93
2023-01-11T13:20:14.434Z,13.80
2023-01-11T13:21:21.537Z,13.76
2023-01-11T13:22:32.271Z,13.45
2023-01-11T13:23:44.181Z,13.56
2023-01-11T13:24:50.997Z,13.46
2023-01-11T13:25:54.706Z,13.66
2023-01-11T13:27:04.910Z,13.61
2023-01-11T13:28:38.808Z,13.79
2023-01-11T13:29:45.893Z,13.81
2023-01-11T13:30:50.514Z,13.81
2023-01-11T13:31:57.679Z,13.65
2023-01-11T13:33:11.134Z,13.70
2023-01-11T13:34:35.351Z,13.77
2023-01-11T13:35:43.251Z,13.75
2023-01-11T13:36:53.775Z,13.40
2023-01-11T13:38:18.395Z,13.51
2023-01-11T13:39:57.639Z,13.56
2023-01-11T13:41:22.323Z,13.48
2023-01-11T13:42:30.700Z,13.36
2023-01-11T13:44:24.106Z,13.16
2023-01-11T13:45:53.424Z,13.16
2023-01-11T13:47:25.798Z,13.21
2023-01-11T13:48:37.905Z,13.00
2023-01-11T13:50:05.556Z,13.27
2023-01-11T13:51:34.861Z,13.10
2023-01-11T13:52:38.407Z,12.99
2023-01-11T13:53:54.230Z,13.17
2023-01-11T13:55:20.842Z,13.24
2023-01-11T13:56:50.192Z,13.10
2023-01-11T13:58:09.371Z,12.93
2023-01-11T13:59:35.470Z,12.89
2023-01-11T14:00:41.381Z,12.83
2023-01-11T14:01:59.632Z,12.65
2023-01-11T14:03:47.367Z,12.62
2023-01-11T14:05:07.780Z,12.69
2023-01-11T14:06:28.782Z,12.75
2023-01-11T14:07:52.195Z,12.66
2023-01-11T14:09:37.983Z,12.70
2023-01-11T14:14:00.515Z,12.35
2023-01-11T14:15:06.051Z,12.10
2023-01-11T14:16:31.681Z,11.99
2023-01-11T14:17:38.424Z,11.90
2023-01-11T14:19:04.444Z,11.71
2023-01-11T14:20:22.137Z,11.58
2023-01-11T14:21:55.683Z,11.52
2023-01-11T14:23:15.579Z,11.48
2023-01-11T14:24:20.732Z,11.39
2023-01-11T14:25:27.612Z,11.30
2023-01-11T14:27:24.665Z,11.27
2023-01-11T14:28:52.321Z,11.14
2023-01-11T14:30:36.829Z,11.09
2023-01-11T14:31:42.786Z,11.05
2023-01-11T14:33:07.394Z,11.03
2023-01-11T14:34:45.554Z,10.96
2023-01-11T14:36:15.089Z,10.82
2023-01-11T14:37:40.353Z,10.66
2023-01-11T14:38:51.166Z,10.57
2023-01-11T14:40:20.379Z,10.54
2023-01-11T14:41:35.440Z,10.44
2023-01-11T14:42:53.007Z,10.36
2023-01-11T14:44:40.008Z,10.27
2023-01-11T14:45:43.601Z,10.09
2023-01-11T14:47:06.460Z,9.88
2023-01-11T14:48:29.141Z,9.68
2023-01-11T14:50:02.387Z,9.49
2023-01-11T14:51:36.560Z,9.42
2023-01-11T14:52:42.172Z,9.18
2023-01-11T14:53:53.383Z,8.95
2023-01-11T14:55:00.555Z,8.82
2023-01-11T14:56:03.691Z,8.63
2023-01-11T14:57:06.793Z,8.56
2023-01-11T14:58:27.056Z,8.44
2023-01-11T14:59:30.341Z,8.35
2023-01-11T15:00:34.350Z,8.27
2023-01-11T15:02:00.171Z,8.22
2023-01-11T15:03:05.781Z,8.15
2023-01-11T15:04:21.432Z,8.10
2023-01-11T15:05:31.166Z,8.05
2023-01-11T15:06:54.428Z,7.97
2023-01-11T15:08:15.711Z,7.93
2023-01-11T15:09:43.782Z,7.90
2023-01-11T15:10:51.063Z,7.85
2023-01-11T15:11:53.979Z,7.80
2023-01-11T15:12:58.356Z,7.78
2023-01-11T15:14:05.802Z,7.76
2023-01-11T15:15:19.485Z,7.73
2023-01-11T15:16:47.178Z,7.69
2023-01-11T15:18:16.046Z,7.66
2023-01-11T15:19:28.779Z,7.62
2023-01-11T15:20:33.759Z,7.59
2023-01-11T15:21:50.080Z,7.58
2023-01-11T15:23:02.388Z,7.59
2023-01-11T15:24:05.373Z,7.59
2023-01-11T15:25:19.258Z,7.58
2023-01-11T15:26:25.076Z,7.52
2023-01-11T15:27:35.784Z,7.50
2023-01-11T15:28:48.143Z,7.47
2023-01-11T15:29:56.118Z,7.46
2023-01-11T15:30:59.013Z,7.44
2023-01-11T15:32:02.151Z,7.41
2023-01-11T15:33:20.322Z,7.39
2023-01-11T15:34:40.495Z,7.32
2023-01-11T15:35:55.466Z,7.27
2023-01-11T15:37:04.981Z,7.25
2023-01-11T15:38:17.031Z,7.21
2023-01-11T15:39:46.680Z,7.09
2023-01-11T15:40:51.247Z,7.07
2023-01-11T15:42:15.767Z,6.98
2023-01-11T15:43:39.942Z,6.93
2023-01-11T15:45:25.068Z,6.85
2023-01-11T15:46:55.365Z,6.76
2023-01-11T15:48:32.886Z,6.67
2023-01-11T15:50:09.051Z,6.63
2023-01-11T15:51:18.125Z,6.56
2023-01-11T15:52:50.829Z,6.47
2023-01-11T15:54:23.810Z,6.39
2023-01-11T15:55:29.821Z,6.34
2023-01-11T15:57:14.431Z,6.35
2023-01-11T15:58:19.939Z,6.30
2023-01-11T15:59:34.753Z,6.29
2023-01-11T16:01:15.589Z,6.28
2023-01-11T16:02:52.841Z,6.23
2023-01-11T16:04:01.506Z,6.20
2023-01-11T16:05:31.118Z,6.16
2023-01-11T16:06:57.392Z,6.14
2023-01-11T16:08:15.300Z,6.14
2023-01-11T16:09:36.850Z,6.13
2023-01-11T16:10:51.572Z,6.09
2023-01-11T16:12:07.749Z,6.02
2023-01-11T16:13:37.414Z,5.97